createdAt,value
2024-02-03T00:02:08.732Z,36.45
2024-02-03T00:04:37.891Z,32.65
2024-02-03T00:07:05.640Z,39.78
2024-02-03T00:09:33.643Z,36.53
2024-02-03T00:12:01.759Z,39.95
2024-02-03T00:14:29.744Z,36.28
2024-02-03T00:16:57.347Z,36.17
2024-02-03T00:19:25.577Z,31.20
2024-02-03T00:21:53.270Z,33.72
2024-02-03T00:24:21.249Z,36.13
2024-02-03T00:26:48.875Z,32.17
2024-02-03T00:29:16.749Z,31.15
2024-02-03T00:31:44.379Z,29.48
2024-02-03T00:34:12.398Z,30.33
2024-02-03T00:36:40.095Z,30.55
2024-02-03T00:39:08.349Z,30.10
2024-02-03T00:41:36.213Z,28.52
2024-02-03T00:44:04.182Z,27.63
2024-02-03T00:46:31.880Z,25.40
2024-02-03T00:48:59.801Z,27.02
2024-02-03T00:51:27.540Z,28.42
2024-02-03T00:53:55.474Z,29.50
2024-02-03T00:56:23.114Z,28.02
2024-02-03T00:58:51.022Z,25.30
2024-02-03T01:01:18.600Z,23.05
2024-02-03T01:03:46.674Z,23.30
2024-02-03T01:06:14.426Z,20.52
2024-02-03T01:08:42.399Z,20.98
2024-02-03T01:11:10.019Z,22.55
2024-02-03T01:13:38.052Z,22.77
2024-02-03T01:16:05.966Z,26.65
2024-02-03T01:18:34.074Z,20.63
2024-02-03T01:21:02.302Z,19.13
2024-02-03T01:23:30.224Z,21.83
2024-02-03T01:25:57.977Z,24.00
2024-02-03T01:28:25.850Z,23.15
2024-02-03T01:30:54.070Z,18.65
2024-02-03T01:33:22.329Z,23.05
2024-02-03T01:35:50.005Z,24.45
2024-02-03T01:38:18.365Z,21.00
2024-02-03T01:40:46.135Z,22.02
2024-02-03T01:43:15.134Z,20.15
2024-02-03T01:45:42.901Z,20.08
2024-02-03T01:48:12.557Z,23.98
2024-02-03T01:50:42.880Z,21.27
2024-02-03T01:53:12.946Z,19.70
2024-02-03T01:55:40.733Z,17.27
2024-02-03T01:58:08.676Z,19.98
2024-02-03T02:00:36.444Z,19.52
2024-02-03T02:03:04.503Z,18.98
2024-02-03T02:05:32.433Z,20.60
2024-02-03T02:08:00.731Z,22.58
2024-02-03T02:10:28.529Z,19.08
2024-02-03T02:12:56.856Z,19.85
2024-02-03T02:15:24.622Z,20.00
2024-02-03T02:17:59.476Z,16.55
2024-02-03T02:20:27.887Z,21.80
2024-02-03T02:22:55.859Z,20.05
2024-02-03T02:25:23.563Z,18.02
2024-02-03T02:27:54.398Z,20.90
2024-02-03T02:30:22.803Z,19.13
2024-02-03T02:32:51.085Z,17.02
2024-02-03T02:35:19.168Z,20.05
2024-02-03T02:37:47.141Z,18.83
2024-02-03T02:40:14.818Z,17.45
2024-02-03T02:42:42.668Z,18.98
2024-02-03T02:45:10.654Z,20.15
2024-02-03T02:47:38.648Z,18.45
2024-02-03T02:50:06.836Z,20.23
2024-02-03T02:52:34.827Z,18.77
2024-02-03T02:55:03.709Z,21.52
2024-02-03T02:57:31.666Z,21.27
2024-02-03T02:59:59.224Z,20.75
2024-02-03T03:02:27.059Z,18.88
2024-02-03T03:04:54.815Z,19.88
2024-02-03T03:07:25.146Z,20.65
2024-02-03T03:09:53.055Z,19.15
2024-02-03T03:12:21.056Z,18.10
2024-02-03T03:14:48.674Z,20.55
2024-02-03T03:17:16.568Z,18.73
2024-02-03T03:19:44.292Z,17.15
2024-02-03T03:22:13.488Z,17.20
2024-02-03T03:24:43.302Z,15.98
2024-02-03T03:27:11.554Z,21.65
2024-02-03T03:29:39.955Z,14.95
2024-02-03T03:32:08.005Z,16.52
2024-02-03T03:34:35.752Z,15.75
2024-02-03T03:37:03.754Z,15.95
2024-02-03T03:39:31.570Z,16.25
2024-02-03T03:41:59.468Z,15.57
2024-02-03T03:44:27.275Z,15.00
2024-02-03T03:46:56.401Z,15.07
2024-02-03T03:49:24.133Z,14.32
2024-02-03T03:51:52.235Z,17.17
2024-02-03T03:54:19.860Z,13.38
2024-02-03T03:56:47.738Z,13.95
2024-02-03T03:59:15.357Z,12.27
2024-02-03T04:01:51.700Z,12.48
2024-02-03T04:04:20.140Z,11.77
2024-02-03T04:06:48.185Z,12.40
2024-02-03T04:09:16.891Z,12.38
2024-02-03T04:11:45.958Z,12.88
2024-02-03T04:14:13.604Z,11.15
2024-02-03T04:16:42.442Z,12.85
2024-02-03T04:19:10.307Z,12.27
2024-02-03T04:21:38.567Z,11.10
2024-02-03T04:24:06.419Z,11.85
2024-02-03T04:26:34.913Z,11.50
2024-02-03T04:29:02.542Z,12.80
2024-02-03T04:31:30.434Z,12.48
2024-02-03T04:33:59.900Z,10.50
2024-02-03T04:36:27.809Z,12.82
2024-02-03T04:38:55.419Z,12.35
2024-02-03T04:41:26.596Z,10.50
2024-02-03T04:43:54.184Z,11.57
2024-02-03T04:46:22.163Z,11.88
2024-02-03T04:48:50.052Z,11.05
2024-02-03T04:51:18.054Z,10.55
2024-02-03T04:53:45.958Z,11.40
2024-02-03T04:56:13.831Z,11.65
2024-02-03T04:58:41.654Z,10.23
2024-02-03T05:01:10.078Z,11.18
2024-02-03T05:03:38.525Z,11.55
2024-02-03T05:06:07.300Z,11.43
2024-02-03T05:08:38.349Z,12.55
2024-02-03T05:11:06.236Z,12.88
2024-02-03T05:13:34.892Z,12.02
2024-02-03T05:16:02.797Z,10.52
2024-02-03T05:18:31.233Z,11.35
2024-02-03T05:20:59.468Z,10.35
2024-02-03T05:23:27.026Z,14.38
2024-02-03T05:25:54.992Z,15.50
2024-02-03T05:28:22.645Z,11.85
2024-02-03T05:30:50.626Z,11.57
2024-02-03T05:33:18.552Z,12.82
2024-02-03T05:35:46.577Z,11.80
2024-02-03T05:38:14.504Z,11.00
2024-02-03T05:40:42.329Z,13.45
2024-02-03T05:43:09.926Z,10.70
2024-02-03T05:45:37.975Z,12.13
2024-02-03T05:48:06.175Z,11.25
2024-02-03T05:50:34.098Z,12.15
2024-02-03T05:53:01.738Z,12.52
2024-02-03T05:55:29.699Z,10.32
2024-02-03T05:57:58.292Z,12.05
2024-02-03T06:00:26.238Z,12.77
2024-02-03T06:02:54.010Z,10.13
2024-02-03T06:05:21.920Z,10.02
2024-02-03T06:07:49.510Z,10.07
2024-02-03T06:10:17.752Z,11.30
2024-02-03T06:12:45.689Z,10.15
2024-02-03T06:15:13.819Z,9.57
2024-02-03T06:17:41.508Z,8.88
2024-02-03T06:20:10.131Z,8.63
2024-02-03T06:22:39.183Z,8.05
2024-02-03T06:25:07.398Z,8.63
2024-02-03T06:27:35.075Z,8.25
2024-02-03T06:30:03.116Z,8.85
2024-02-03T06:32:30.776Z,7.40
2024-02-03T06:34:58.802Z,7.82
2024-02-03T06:37:26.581Z,8.48
2024-02-03T06:39:54.501Z,7.63
2024-02-03T06:42:22.161Z,6.75
2024-02-03T06:44:52.399Z,6.05
2024-02-03T06:47:20.894Z,7.05
2024-02-03T06:49:49.089Z,6.15
2024-02-03T06:52:16.885Z,7.63
2024-02-03T06:54:44.873Z,7.22
2024-02-03T06:57:12.485Z,7.47
2024-02-03T06:59:40.444Z,5.28
2024-02-03T07:02:08.054Z,6.93
2024-02-03T07:04:36.288Z,7.43
2024-02-03T07:07:04.915Z,5.95
2024-02-03T07:09:33.013Z,6.28
2024-02-03T07:12:07.211Z,8.23
2024-02-03T07:14:36.414Z,8.20
2024-02-03T07:17:04.222Z,7.63
2024-02-03T07:19:32.217Z,7.65
2024-02-03T07:21:59.939Z,6.82
2024-02-03T07:24:27.924Z,8.43
2024-02-03T07:26:55.545Z,7.63
2024-02-03T07:29:23.505Z,8.20
2024-02-03T07:31:58.901Z,9.30
2024-02-03T07:34:27.308Z,8.55
2024-02-03T07:36:55.145Z,10.35
2024-02-03T07:39:23.198Z,13.98
2024-02-03T07:41:51.031Z,10.13
2024-02-03T07:44:18.972Z,10.02
2024-02-03T07:46:46.650Z,11.73
2024-02-03T07:49:14.634Z,12.80
2024-02-03T07:51:42.369Z,9.43
2024-02-03T07:54:10.271Z,10.50
2024-02-03T07:56:38.013Z,12.00
2024-02-03T07:59:05.862Z,12.77
2024-02-03T08:01:33.435Z,12.98
2024-02-03T08:04:01.438Z,11.23
2024-02-03T08:06:29.191Z,10.25
2024-02-03T08:08:57.169Z,12.70
2024-02-03T08:11:24.774Z,11.85
2024-02-03T08:13:52.684Z,13.18
2024-02-03T08:16:20.305Z,13.45
2024-02-03T08:18:48.464Z,12.68
2024-02-03T08:21:16.141Z,14.73
2024-02-03T08:23:44.057Z,16.05
2024-02-03T08:26:13.501Z,18.92
2024-02-03T08:28:41.466Z,16.55
2024-02-03T08:31:10.992Z,16.27
2024-02-03T08:33:39.063Z,17.83
2024-02-03T08:36:09.263Z,19.50
2024-02-03T08:38:38.404Z,17.92
2024-02-03T08:41:06.102Z,22.33
2024-02-03T08:43:33.986Z,18.17
2024-02-03T08:46:01.592Z,19.98
2024-02-03T08:48:29.789Z,18.85
2024-02-03T08:50:57.592Z,17.65
2024-02-03T08:53:25.631Z,19.75
2024-02-03T08:55:53.324Z,20.70
2024-02-03T08:58:21.253Z,19.45
2024-02-03T09:00:49.836Z,17.25
2024-02-03T09:03:18.432Z,20.63
2024-02-03T09:05:46.696Z,20.90
2024-02-03T09:08:14.652Z,16.33
2024-02-03T09:10:42.364Z,17.42
2024-02-03T09:13:10.855Z,19.73
2024-02-03T09:15:38.464Z,19.23
2024-02-03T09:18:07.072Z,16.50
2024-02-03T09:20:34.870Z,15.88
2024-02-03T09:23:02.741Z,15.90
2024-02-03T09:25:30.426Z,15.23
2024-02-03T09:27:58.322Z,17.10
2024-02-03T09:30:26.109Z,15.43
2024-02-03T09:32:54.109Z,14.88
2024-02-03T09:35:21.825Z,14.15
2024-02-03T09:37:51.372Z,16.48
2024-02-03T09:40:23.121Z,13.60
2024-02-03T09:42:52.172Z,12.25
2024-02-03T09:45:22.461Z,14.52
2024-02-03T09:47:51.464Z,10.93
2024-02-03T09:50:19.242Z,13.80
2024-02-03T09:52:47.452Z,13.18
2024-02-03T09:55:17.376Z,11.30
2024-02-03T09:57:47.767Z,11.63
2024-02-03T10:00:18.209Z,9.48
2024-02-03T10:02:46.208Z,10.25
2024-02-03T10:05:13.949Z,11.88
2024-02-03T10:07:41.881Z,13.52
2024-02-03T10:12:41.913Z,10.48
2024-02-03T10:15:10.273Z,9.68
2024-02-03T10:17:38.503Z,10.50
2024-02-03T10:20:08.312Z,9.48
2024-02-03T10:22:38.609Z,11.02
2024-02-03T10:25:13.013Z,10.65
2024-02-03T10:27:43.045Z,8.77
2024-02-03T10:30:11.412Z,9.70
2024-02-03T10:32:39.400Z,11.23
2024-02-03T10:35:07.588Z,7.95
2024-02-03T10:37:35.559Z,9.93
2024-02-03T10:40:04.589Z,10.18
2024-02-03T10:42:35.728Z,11.00
2024-02-03T10:45:11.702Z,8.20
2024-02-03T10:47:42.078Z,10.70
2024-02-03T10:50:13.149Z,13.18
2024-02-03T10:52:45.391Z,12.63
2024-02-03T10:55:16.733Z,12.13
2024-02-03T10:57:48.119Z,11.77
2024-02-03T11:00:19.905Z,7.20
2024-02-03T11:02:58.767Z,8.95
2024-02-03T11:05:28.230Z,8.02
2024-02-03T11:08:05.749Z,8.23
2024-02-03T11:10:38.369Z,9.70
2024-02-03T11:13:23.159Z,13.77
2024-02-03T11:15:58.613Z,9.23
2024-02-03T11:18:27.702Z,9.05
2024-02-03T11:21:06.497Z,10.93
2024-02-03T11:23:36.294Z,7.68
2024-02-03T11:26:04.151Z,8.77
2024-02-03T11:28:34.177Z,7.07
2024-02-03T11:31:06.002Z,7.85
2024-02-03T11:33:47.647Z,6.88
2024-02-03T11:36:15.891Z,6.75
2024-02-03T11:38:48.032Z,6.53
2024-02-03T11:41:16.915Z,6.00
2024-02-03T11:43:45.503Z,5.18
2024-02-03T11:46:13.624Z,4.72
2024-02-03T11:48:44.761Z,4.97
2024-02-03T11:51:12.950Z,5.18
2024-02-03T11:53:41.053Z,7.82
2024-02-03T11:56:08.893Z,4.32
2024-02-03T11:58:36.766Z,4.72
2024-02-03T12:01:11.950Z,4.97
2024-02-03T12:03:40.744Z,5.85
2024-02-03T12:06:09.316Z,3.08
2024-02-03T12:08:37.457Z,4.95
2024-02-03T12:11:07.125Z,3.55
2024-02-03T12:13:41.362Z,3.53
2024-02-03T12:16:09.956Z,2.95
2024-02-03T12:18:42.361Z,4.55
2024-02-03T12:21:10.513Z,3.80
2024-02-03T12:23:39.606Z,2.70
2024-02-03T12:26:07.429Z,3.00
2024-02-03T12:28:35.856Z,2.95
2024-02-03T12:31:04.551Z,3.70
2024-02-03T12:33:32.873Z,3.00
2024-02-03T12:36:01.066Z,2.63
2024-02-03T12:38:29.059Z,2.72
2024-02-03T12:40:56.893Z,3.97
2024-02-03T12:43:24.777Z,4.15
2024-02-03T12:45:52.476Z,2.72
2024-02-03T12:48:20.618Z,3.13
2024-02-03T12:50:48.958Z,2.45
2024-02-03T12:53:17.011Z,2.85
2024-02-03T12:55:44.821Z,2.50
2024-02-03T12:58:12.798Z,2.60
2024-02-03T13:00:40.549Z,3.53
2024-02-03T13:03:10.863Z,3.85
2024-02-03T13:05:38.978Z,6.95
2024-02-03T13:08:07.511Z,4.55
2024-02-03T13:10:35.584Z,3.22
2024-02-03T13:13:03.617Z,3.40
2024-02-03T13:15:31.276Z,3.45
2024-02-03T13:17:59.182Z,3.78
2024-02-03T13:20:26.957Z,2.40
2024-02-03T13:22:54.967Z,2.80
2024-02-03T13:25:22.631Z,4.10
2024-02-03T13:27:50.958Z,2.60
2024-02-03T13:30:18.891Z,2.80
2024-02-03T13:32:47.106Z,2.88
2024-02-03T13:35:15.095Z,2.72
2024-02-03T13:37:43.253Z,2.88
2024-02-03T13:40:11.525Z,2.85
2024-02-03T13:42:48.989Z,2.97
2024-02-03T13:45:16.840Z,3.55
2024-02-03T13:47:47.156Z,3.22
2024-02-03T13:50:15.323Z,5.22
2024-02-03T13:52:43.247Z,4.90
2024-02-03T13:55:11.365Z,3.50
2024-02-03T13:57:39.358Z,2.47
2024-02-03T14:00:08.717Z,3.92
2024-02-03T14:02:38.632Z,3.65
2024-02-03T14:05:07.275Z,3.60
2024-02-03T14:07:35.281Z,3.15
2024-02-03T14:10:03.290Z,2.53
2024-02-03T14:12:31.896Z,3.33
2024-02-03T14:14:59.672Z,20.48
2024-02-03T14:17:27.654Z,6.57
2024-02-03T14:19:55.437Z,2.70
2024-02-03T14:22:23.379Z,3.55
2024-02-03T14:24:51.151Z,3.67
2024-02-03T14:27:19.239Z,3.88
2024-02-03T14:29:46.847Z,4.97
2024-02-03T14:32:14.722Z,3.35
2024-02-03T14:34:42.469Z,3.92
2024-02-03T14:37:10.462Z,3.08
2024-02-03T14:39:38.809Z,2.50
2024-02-03T14:42:07.382Z,2.35
2024-02-03T14:44:35.004Z,2.53
2024-02-03T14:47:02.918Z,2.47
2024-02-03T14:49:30.613Z,2.55
2024-02-03T14:51:58.730Z,2.05
2024-02-03T14:54:26.694Z,2.08
2024-02-03T14:56:56.792Z,2.65
2024-02-03T14:59:25.797Z,4.15
2024-02-03T15:01:53.718Z,3.05
2024-02-03T15:04:21.522Z,3.67
2024-02-03T15:06:49.562Z,2.10
2024-02-03T15:09:17.421Z,2.88
2024-02-03T15:11:45.311Z,2.53
2024-02-03T15:14:12.879Z,4.90
2024-02-03T15:16:40.910Z,3.83
2024-02-03T15:19:09.286Z,4.18
2024-02-03T15:21:40.217Z,3.65
2024-02-03T15:24:08.806Z,3.88
2024-02-03T15:26:36.965Z,3.22
2024-02-03T15:29:04.645Z,4.35
2024-02-03T15:31:32.640Z,4.68
2024-02-03T15:34:00.389Z,2.85
2024-02-03T15:36:28.409Z,2.47
2024-02-03T15:38:57.941Z,3.13
2024-02-03T15:41:25.869Z,3.47
2024-02-03T15:43:53.584Z,2.60
2024-02-03T15:46:30.575Z,2.40
2024-02-03T15:49:04.660Z,3.78
2024-02-03T15:51:33.570Z,2.63
2024-02-03T15:54:01.552Z,7.72
2024-02-03T15:56:29.720Z,3.25
2024-02-03T15:58:57.474Z,3.70
2024-02-03T16:01:25.888Z,4.32
2024-02-03T16:03:53.788Z,4.75
2024-02-03T16:06:21.757Z,4.65
2024-02-03T16:08:49.541Z,3.63
2024-02-03T16:11:17.637Z,4.70
2024-02-03T16:13:45.362Z,4.18
2024-02-03T16:16:16.020Z,2.50
2024-02-03T16:18:44.143Z,3.58
2024-02-03T16:21:12.158Z,4.05
2024-02-03T16:23:40.086Z,5.05
2024-02-03T16:26:08.023Z,5.97
2024-02-03T16:28:37.772Z,3.53
2024-02-03T16:31:06.282Z,5.93
2024-02-03T16:33:36.964Z,4.30
2024-02-03T16:36:05.660Z,5.28
2024-02-03T16:38:33.561Z,7.70
2024-02-03T16:41:01.488Z,7.30
2024-02-03T16:43:29.196Z,5.15
2024-02-03T16:45:57.245Z,3.88
2024-02-03T16:48:25.553Z,5.20
2024-02-03T16:50:53.435Z,6.43
2024-02-03T16:53:21.107Z,3.50
2024-02-03T16:55:49.014Z,4.70
2024-02-03T16:58:16.644Z,3.45
2024-02-03T17:00:44.626Z,3.75
2024-02-03T17:03:12.358Z,4.60
2024-02-03T17:05:40.924Z,4.93
2024-02-03T17:08:13.233Z,3.65
2024-02-03T17:10:41.465Z,5.32
2024-02-03T17:13:09.163Z,6.13
2024-02-03T17:15:37.149Z,6.07
2024-02-03T17:18:05.040Z,6.57
2024-02-03T17:20:33.061Z,9.55
2024-02-03T17:23:00.755Z,5.35
2024-02-03T17:25:32.048Z,3.45
2024-02-03T17:28:00.051Z,7.63
2024-02-03T17:30:28.284Z,5.65
2024-02-03T17:32:56.227Z,3.70
2024-02-03T17:35:24.565Z,5.75
2024-02-03T17:37:52.807Z,5.15
2024-02-03T17:40:20.856Z,4.35
2024-02-03T17:42:50.933Z,6.90
2024-02-03T17:45:22.466Z,6.22
2024-02-03T17:47:52.247Z,5.28
2024-02-03T17:50:21.153Z,6.63
2024-02-03T17:52:48.981Z,4.68
2024-02-03T17:55:16.946Z,6.80
2024-02-03T17:57:46.718Z,8.23
2024-02-03T18:00:15.211Z,6.13
2024-02-03T18:02:44.333Z,6.63
2024-02-03T18:05:12.537Z,6.15
2024-02-03T18:07:40.181Z,7.80
2024-02-03T18:10:08.606Z,9.43
2024-02-03T18:12:36.310Z,13.98
2024-02-03T18:15:04.523Z,11.85
2024-02-03T18:17:32.204Z,7.20
2024-02-03T18:20:00.358Z,13.40
2024-02-03T18:22:32.476Z,4.75
2024-02-03T18:25:00.725Z,4.90
2024-02-03T18:27:28.461Z,5.07
2024-02-03T18:29:56.580Z,6.18
2024-02-03T18:32:24.506Z,10.40
2024-02-03T18:34:52.560Z,6.45
2024-02-03T18:37:20.230Z,11.00
2024-02-03T18:39:53.698Z,8.07
2024-02-03T18:44:49.970Z,6.32
2024-02-03T18:47:17.841Z,10.07
2024-02-03T18:49:45.932Z,9.18
2024-02-03T18:52:13.625Z,6.78
2024-02-03T18:54:44.163Z,6.40
2024-02-03T18:57:11.898Z,9.57
2024-02-03T18:59:39.828Z,9.20
2024-02-03T19:02:07.474Z,8.30
2024-02-03T19:04:35.479Z,8.07
2024-02-03T19:07:03.163Z,8.98
2024-02-03T19:09:34.204Z,27.35
2024-02-03T19:12:02.176Z,14.15
2024-02-03T19:14:30.735Z,8.13
2024-02-03T19:16:58.439Z,8.40
2024-02-03T19:19:26.584Z,7.40
2024-02-03T19:21:54.299Z,8.15
2024-02-03T19:24:22.234Z,7.45
2024-02-03T19:26:49.787Z,6.40
2024-02-03T19:29:17.701Z,6.03
2024-02-03T19:31:45.488Z,5.63
2024-02-03T19:34:13.399Z,6.43
2024-02-03T19:36:41.122Z,6.10
2024-02-03T19:39:10.156Z,8.65
2024-02-03T19:41:41.240Z,7.63
2024-02-03T19:44:09.235Z,6.18
2024-02-03T19:46:38.581Z,4.10
2024-02-03T19:49:08.085Z,7.13
2024-02-03T19:51:36.244Z,8.35
2024-02-03T19:54:04.357Z,21.75
2024-02-03T19:56:32.012Z,37.13
2024-02-03T19:59:00.161Z,11.90
2024-02-03T20:01:27.838Z,11.27
2024-02-03T20:03:55.938Z,12.27
2024-02-03T20:06:23.708Z,8.40
2024-02-03T20:08:51.656Z,12.65
2024-02-03T20:11:19.523Z,14.10
2024-02-03T20:13:47.958Z,8.20
2024-02-03T20:16:15.796Z,10.15
2024-02-03T20:18:44.010Z,12.75
2024-02-03T20:21:11.907Z,10.13
2024-02-03T20:23:39.969Z,15.02
2024-02-03T20:26:07.583Z,6.80
2024-02-03T20:28:35.818Z,6.70
2024-02-03T20:31:03.603Z,13.30
2024-02-03T20:33:34.245Z,10.38
2024-02-03T20:36:02.428Z,7.28
2024-02-03T20:38:30.528Z,9.65
2024-02-03T20:40:58.365Z,8.38
2024-02-03T20:43:26.522Z,7.60
2024-02-03T20:45:55.166Z,6.22
2024-02-03T20:48:23.901Z,8.73
2024-02-03T20:50:51.985Z,12.75
2024-02-03T20:53:22.468Z,14.27
2024-02-03T20:55:50.191Z,18.63
2024-02-03T21:00:46.954Z,11.43
2024-02-03T21:03:15.117Z,12.23
2024-02-03T21:05:43.476Z,11.57
2024-02-03T21:08:11.820Z,8.38
2024-02-03T21:10:39.874Z,10.77
2024-02-03T21:13:08.072Z,8.55
2024-02-03T21:15:35.939Z,8.57
2024-02-03T21:18:06.569Z,11.13
2024-02-03T21:20:35.039Z,9.82
2024-02-03T21:23:03.484Z,9.30
2024-02-03T21:25:31.285Z,8.73
2024-02-03T21:27:59.214Z,8.73
2024-02-03T21:30:27.486Z,9.93
2024-02-03T21:32:55.741Z,10.43
2024-02-03T21:35:23.611Z,7.70
2024-02-03T21:37:51.661Z,9.55
2024-02-03T21:40:19.311Z,11.10
2024-02-03T21:42:47.373Z,8.48
2024-02-03T21:45:15.089Z,11.15
2024-02-03T21:47:43.093Z,15.65
2024-02-03T21:50:11.009Z,8.05
2024-02-03T21:52:39.675Z,11.00
2024-02-03T21:55:07.861Z,8.55
2024-02-03T21:57:35.758Z,7.80
2024-02-03T22:00:03.648Z,13.88
2024-02-03T22:02:40.158Z,6.85
2024-02-03T22:05:08.809Z,7.25
2024-02-03T22:07:36.801Z,11.50
2024-02-03T22:10:05.966Z,10.82
2024-02-03T22:12:33.980Z,12.60
2024-02-03T22:15:01.585Z,12.88
2024-02-03T22:17:29.580Z,10.98
2024-02-03T22:19:57.328Z,11.07
2024-02-03T22:22:25.559Z,6.40
2024-02-03T22:24:53.401Z,8.57
2024-02-03T22:27:21.322Z,7.78
2024-02-03T22:29:49.202Z,8.35
2024-02-03T22:32:17.437Z,9.40
2024-02-03T22:34:46.782Z,12.82
2024-02-03T22:37:15.335Z,11.98
2024-02-03T22:39:43.379Z,9.35
2024-02-03T22:42:11.369Z,10.23
2024-02-03T22:44:38.980Z,11.70
2024-02-03T22:47:07.040Z,7.47
2024-02-03T22:49:34.820Z,11.27
2024-02-03T22:52:02.904Z,9.63
2024-02-03T22:54:32.277Z,13.93
2024-02-03T22:57:00.213Z,11.02
2024-02-03T22:59:30.407Z,11.90
2024-02-03T23:01:58.686Z,9.30
2024-02-03T23:04:26.433Z,11.38
2024-02-03T23:06:54.395Z,11.07
2024-02-03T23:09:22.117Z,13.93
2024-02-03T23:11:50.367Z,14.63
2024-02-03T23:14:17.908Z,11.50
2024-02-03T23:16:45.849Z,8.55
2024-02-03T23:19:13.715Z,10.35
2024-02-03T23:21:41.829Z,11.15
2024-02-03T23:24:09.502Z,9.38
2024-02-03T23:26:37.440Z,13.52
2024-02-03T23:29:05.046Z,12.50
2024-02-03T23:31:33.166Z,13.80
2024-02-03T23:34:00.860Z,11.30
2024-02-03T23:36:28.966Z,13.13
2024-02-03T23:38:56.981Z,9.82
2024-02-03T23:41:25.926Z,10.88
2024-02-03T23:43:53.519Z,10.98
2024-02-03T23:46:21.378Z,11.50
2024-02-03T23:48:48.991Z,10.45
2024-02-03T23:51:17.388Z,9.82
2024-02-03T23:53:44.988Z,9.60
2024-02-03T23:56:12.904Z,10.45
2024-02-03T23:58:40.575Z,6.25
